sensor_id;sensor_type;location;lat;lon;timestamp;P1;durP1;ratioP1;P2;durP2;ratioP2
7989;SDS011;4040;42.848;23.034;2022-11-21T00:00:56;50.00;;;25.23;;
7989;SDS011;4040;42.848;23.034;2022-11-21T00:11:07;10.77;;;6.40;;
7989;SDS011;4040;42.848;23.034;2022-11-21T00:16:57;0.80;;;0.80;;
7989;SDS011;4040;42.848;23.034;2022-11-21T00:22:46;0.50;;;0.50;;
7989;SDS011;4040;42.848;23.034;2022-11-21T00:28:36;1.07;;;0.83;;
7989;SDS011;4040;42.848;23.034;2022-11-21T00:34:26;0.63;;;0.63;;
7989;SDS011;4040;42.848;23.034;2022-11-21T00:40:15;0.93;;;0.93;;
7989;SDS011;4040;42.848;23.034;2022-11-21T00:46:04;1.17;;;1.13;;
7989;SDS011;4040;42.848;23.034;2022-11-21T00:51:54;1.13;;;1.00;;
7989;SDS011;4040;42.848;23.034;2022-11-21T00:57:42;0.93;;;0.93;;
7989;SDS011;4040;42.848;23.034;2022-11-21T01:03:31;0.70;;;0.70;;
7989;SDS011;4040;42.848;23.034;2022-11-21T01:13:45;0.77;;;0.77;;
7989;SDS011;4040;42.848;23.034;2022-11-21T01:19:35;0.40;;;0.40;;
7989;SDS011;4040;42.848;23.034;2022-11-21T01:25:24;1.47;;;1.37;;
7989;SDS011;4040;42.848;23.034;2022-11-21T01:31:15;3.30;;;2.07;;
7989;SDS011;4040;42.848;23.034;2022-11-21T01:37:05;1.33;;;1.23;;
7989;SDS011;4040;42.848;23.034;2022-11-21T01:42:53;1.43;;;1.27;;
7989;SDS011;4040;42.848;23.034;2022-11-21T01:48:51;0.57;;;0.57;;
7989;SDS011;4040;42.848;23.034;2022-11-21T01:54:42;0.87;;;0.87;;
7989;SDS011;4040;42.848;23.034;2022-11-21T02:00:36;1.43;;;1.20;;
7989;SDS011;4040;42.848;23.034;2022-11-21T02:06:39;1.37;;;1.27;;
7989;SDS011;4040;42.848;23.034;2022-11-21T02:16:49;2.13;;;1.50;;
7989;SDS011;4040;42.848;23.034;2022-11-21T02:22:41;1.17;;;1.10;;
7989;SDS011;4040;42.848;23.034;2022-11-21T02:28:36;1.23;;;1.23;;
7989;SDS011;4040;42.848;23.034;2022-11-21T02:34:25;0.73;;;0.73;;
7989;SDS011;4040;42.848;23.034;2022-11-21T02:40:14;0.50;;;0.50;;
7989;SDS011;4040;42.848;23.034;2022-11-21T02:46:09;2.03;;;0.80;;
7989;SDS011;4040;42.848;23.034;2022-11-21T02:51:57;1.23;;;1.23;;
7989;SDS011;4040;42.848;23.034;2022-11-21T02:57:46;0.93;;;0.90;;
7989;SDS011;4040;42.848;23.034;2022-11-21T03:03:36;0.60;;;0.60;;
7989;SDS011;4040;42.848;23.034;2022-11-21T03:09:25;1.07;;;0.97;;
7989;SDS011;4040;42.848;23.034;2022-11-21T03:19:37;0.60;;;0.60;;
7989;SDS011;4040;42.848;23.034;2022-11-21T03:25:26;0.50;;;0.50;;
7989;SDS011;4040;42.848;23.034;2022-11-21T03:31:15;1.83;;;0.70;;
7989;SDS011;4040;42.848;23.034;2022-11-21T03:37:05;0.40;;;0.40;;
7989;SDS011;4040;42.848;23.034;2022-11-21T03:42:54;0.40;;;0.40;;
7989;SDS011;4040;42.848;23.034;2022-11-21T03:48:42;0.40;;;0.40;;
7989;SDS011;4040;42.848;23.034;2022-11-21T03:54:32;0.40;;;0.40;;
7989;SDS011;4040;42.848;23.034;2022-11-21T04:00:21;0.60;;;0.60;;
7989;SDS011;4040;42.848;23.034;2022-11-21T04:06:30;0.43;;;0.43;;
7989;SDS011;4040;42.848;23.034;2022-11-21T04:12:19;0.50;;;0.50;;
7989;SDS011;4040;42.848;23.034;2022-11-21T04:22:10;0.43;;;0.43;;
7989;SDS011;4040;42.848;23.034;2022-11-21T04:28:00;0.50;;;0.50;;
7989;SDS011;4040;42.848;23.034;2022-11-21T04:33:50;1.43;;;1.43;;
7989;SDS011;4040;42.848;23.034;2022-11-21T04:39:38;0.80;;;0.80;;
7989;SDS011;4040;42.848;23.034;2022-11-21T04:45:28;0.40;;;0.40;;
7989;SDS011;4040;42.848;23.034;2022-11-21T04:51:17;0.40;;;0.40;;
7989;SDS011;4040;42.848;23.034;2022-11-21T04:57:06;0.60;;;0.60;;
7989;SDS011;4040;42.848;23.034;2022-11-21T05:03:01;0.70;;;0.63;;
7989;SDS011;4040;42.848;23.034;2022-11-21T05:08:50;0.40;;;0.40;;
7989;SDS011;4040;42.848;23.034;2022-11-21T05:14:39;0.40;;;0.40;;
7989;SDS011;4040;42.848;23.034;2022-11-21T05:24:40;0.50;;;0.50;;
7989;SDS011;4040;42.848;23.034;2022-11-21T05:30:29;0.40;;;0.40;;
7989;SDS011;4040;42.848;23.034;2022-11-21T05:36:18;0.60;;;0.60;;
7989;SDS011;4040;42.848;23.034;2022-11-21T05:42:08;0.40;;;0.40;;
7989;SDS011;4040;42.848;23.034;2022-11-21T05:47:56;0.97;;;0.97;;
7989;SDS011;4040;42.848;23.034;2022-11-21T05:53:45;0.50;;;0.50;;
7989;SDS011;4040;42.848;23.034;2022-11-21T05:59:35;0.73;;;0.70;;
7989;SDS011;4040;42.848;23.034;2022-11-21T06:05:24;0.50;;;0.50;;
7989;SDS011;4040;42.848;23.034;2022-11-21T06:11:14;1.00;;;0.93;;
7989;SDS011;4040;42.848;23.034;2022-11-21T06:17:05;0.53;;;0.53;;
7989;SDS011;4040;42.848;23.034;2022-11-21T06:27:15;1.37;;;1.27;;
7989;SDS011;4040;42.848;23.034;2022-11-21T06:33:06;0.60;;;0.60;;
7989;SDS011;4040;42.848;23.034;2022-11-21T06:38:54;0.70;;;0.70;;
7989;SDS011;4040;42.848;23.034;2022-11-21T06:44:44;1.03;;;1.03;;
7989;SDS011;4040;42.848;23.034;2022-11-21T06:50:34;0.60;;;0.60;;
7989;SDS011;4040;42.848;23.034;2022-11-21T06:56:24;0.60;;;0.60;;
7989;SDS011;4040;42.848;23.034;2022-11-21T07:02:13;0.97;;;0.97;;
7989;SDS011;4040;42.848;23.034;2022-11-21T07:08:04;2.47;;;1.13;;
7989;SDS011;4040;42.848;23.034;2022-11-21T07:13:53;3.40;;;1.10;;
7989;SDS011;4040;42.848;23.034;2022-11-21T07:19:42;1.50;;;1.03;;
7989;SDS011;4040;42.848;23.034;2022-11-21T07:29:53;2.77;;;2.33;;
7989;SDS011;4040;42.848;23.034;2022-11-21T07:35:44;1.87;;;1.77;;
7989;SDS011;4040;42.848;23.034;2022-11-21T07:41:32;2.00;;;1.00;;
7989;SDS011;4040;42.848;23.034;2022-11-21T07:47:22;1.50;;;1.40;;
7989;SDS011;4040;42.848;23.034;2022-11-21T07:53:11;1.87;;;1.77;;
7989;SDS011;4040;42.848;23.034;2022-11-21T07:59:00;1.23;;;1.20;;
7989;SDS011;4040;42.848;23.034;2022-11-21T08:04:50;0.93;;;0.93;;
7989;SDS011;4040;42.848;23.034;2022-11-21T08:10:39;0.80;;;0.80;;
7989;SDS011;4040;42.848;23.034;2022-11-21T08:16:29;0.80;;;0.80;;
7989;SDS011;4040;42.848;23.034;2022-11-21T08:22:19;1.40;;;1.30;;
7989;SDS011;4040;42.848;23.034;2022-11-21T08:32:30;0.90;;;0.90;;
7989;SDS011;4040;42.848;23.034;2022-11-21T08:38:20;0.50;;;0.50;;
7989;SDS011;4040;42.848;23.034;2022-11-21T08:44:09;0.67;;;0.67;;
7989;SDS011;4040;42.848;23.034;2022-11-21T08:49:58;0.73;;;0.73;;
7989;SDS011;4040;42.848;23.034;2022-11-21T08:55:48;0.77;;;0.77;;
7989;SDS011;4040;42.848;23.034;2022-11-21T09:01:37;0.77;;;0.77;;
7989;SDS011;4040;42.848;23.034;2022-11-21T09:07:25;0.60;;;0.60;;
7989;SDS011;4040;42.848;23.034;2022-11-21T09:13:15;1.63;;;1.10;;
7989;SDS011;4040;42.848;23.034;2022-11-21T09:19:04;0.70;;;0.70;;
7989;SDS011;4040;42.848;23.034;2022-11-21T09:24:52;0.50;;;0.50;;
7989;SDS011;4040;42.848;23.034;2022-11-21T09:35:05;0.40;;;0.40;;
7989;SDS011;4040;42.848;23.034;2022-11-21T09:40:55;3.67;;;2.10;;
7989;SDS011;4040;42.848;23.034;2022-11-21T09:47:19;0.80;;;0.80;;
7989;SDS011;4040;42.848;23.034;2022-11-21T09:53:12;1.27;;;0.80;;
7989;SDS011;4040;42.848;23.034;2022-11-21T09:59:11;0.70;;;0.70;;
7989;SDS011;4040;42.848;23.034;2022-11-21T10:05:21;0.50;;;0.50;;
7989;SDS011;4040;42.848;23.034;2022-11-21T10:11:22;1.53;;;0.93;;
7989;SDS011;4040;42.848;23.034;2022-11-21T10:17:21;1.60;;;0.90;;
7989;SDS011;4040;42.848;23.034;2022-11-21T10:23:23;0.50;;;0.50;;
7989;SDS011;4040;42.848;23.034;2022-11-21T10:29:25;0.50;;;0.50;;
7989;SDS011;4040;42.848;23.034;2022-11-21T10:35:39;0.43;;;0.43;;
7989;SDS011;4040;42.848;23.034;2022-11-21T10:41:35;0.87;;;0.87;;
7989;SDS011;4040;42.848;23.034;2022-11-21T10:47:33;0.50;;;0.50;;
7989;SDS011;4040;42.848;23.034;2022-11-21T10:53:23;1.47;;;1.17;;
7989;SDS011;4040;42.848;23.034;2022-11-21T10:59:35;0.47;;;0.47;;
7989;SDS011;4040;42.848;23.034;2022-11-21T11:05:26;0.53;;;0.53;;
7989;SDS011;4040;42.848;23.034;2022-11-21T11:11:15;0.50;;;0.50;;
7989;SDS011;4040;42.848;23.034;2022-11-21T11:17:12;0.60;;;0.60;;
7989;SDS011;4040;42.848;23.034;2022-11-21T11:23:16;0.43;;;0.43;;
7989;SDS011;4040;42.848;23.034;2022-11-21T11:29:12;1.17;;;1.03;;
7989;SDS011;4040;42.848;23.034;2022-11-21T11:35:04;1.40;;;1.23;;
7989;SDS011;4040;42.848;23.034;2022-11-21T11:41:11;2.00;;;1.27;;
7989;SDS011;4040;42.848;23.034;2022-11-21T11:47:07;0.60;;;0.60;;
7989;SDS011;4040;42.848;23.034;2022-11-21T11:53:19;0.70;;;0.70;;
7989;SDS011;4040;42.848;23.034;2022-11-21T11:59:13;2.60;;;1.13;;
7989;SDS011;4040;42.848;23.034;2022-11-21T12:05:06;5.10;;;4.10;;
7989;SDS011;4040;42.848;23.034;2022-11-21T12:11:02;0.50;;;0.50;;
7989;SDS011;4040;42.848;23.034;2022-11-21T12:17:20;1.00;;;1.00;;
7989;SDS011;4040;42.848;23.034;2022-11-21T12:23:14;8.13;;;4.10;;
7989;SDS011;4040;42.848;23.034;2022-11-21T12:29:14;7.87;;;5.20;;
7989;SDS011;4040;42.848;23.034;2022-11-21T12:35:18;17.87;;;7.43;;
7989;SDS011;4040;42.848;23.034;2022-11-21T12:41:26;12.30;;;6.17;;
7989;SDS011;4040;42.848;23.034;2022-11-21T12:47:59;8.60;;;5.17;;
7989;SDS011;4040;42.848;23.034;2022-11-21T12:54:27;7.80;;;4.43;;
7989;SDS011;4040;42.848;23.034;2022-11-21T13:00:31;12.37;;;5.97;;
7989;SDS011;4040;42.848;23.034;2022-11-21T13:06:26;4.27;;;3.77;;
7989;SDS011;4040;42.848;23.034;2022-11-21T13:12:21;5.20;;;4.03;;
7989;SDS011;4040;42.848;23.034;2022-11-21T13:18:16;6.23;;;4.20;;
7989;SDS011;4040;42.848;23.034;2022-11-21T13:24:10;4.93;;;3.60;;
7989;SDS011;4040;42.848;23.034;2022-11-21T13:30:23;5.23;;;4.03;;
7989;SDS011;4040;42.848;23.034;2022-11-21T13:36:12;5.60;;;3.97;;
7989;SDS011;4040;42.848;23.034;2022-11-21T13:42:22;5.13;;;3.90;;
7989;SDS011;4040;42.848;23.034;2022-11-21T13:55:00;4.93;;;3.90;;
7989;SDS011;4040;42.848;23.034;2022-11-21T14:01:20;8.73;;;5.17;;
7989;SDS011;4040;42.848;23.034;2022-11-21T14:07:37;7.93;;;5.87;;
7989;SDS011;4040;42.848;23.034;2022-11-21T14:13:28;6.37;;;4.53;;
7989;SDS011;4040;42.848;23.034;2022-11-21T14:19:18;8.63;;;4.90;;
7989;SDS011;4040;42.848;23.034;2022-11-21T14:25:14;10.30;;;6.20;;
7989;SDS011;4040;42.848;23.034;2022-11-21T14:34:27;17.93;;;7.20;;
7989;SDS011;4040;42.848;23.034;2022-11-21T14:40:20;16.93;;;7.70;;
7989;SDS011;4040;42.848;23.034;2022-11-21T14:46:30;19.53;;;7.67;;
7989;SDS011;4040;42.848;23.034;2022-11-21T14:52:22;10.87;;;5.63;;
7989;SDS011;4040;42.848;23.034;2022-11-21T14:58:15;16.40;;;7.53;;
7989;SDS011;4040;42.848;23.034;2022-11-21T15:04:05;14.83;;;7.67;;
7989;SDS011;4040;42.848;23.034;2022-11-21T15:09:55;17.97;;;7.97;;
7989;SDS011;4040;42.848;23.034;2022-11-21T15:15:46;21.87;;;9.97;;
7989;SDS011;4040;42.848;23.034;2022-11-21T15:21:42;28.23;;;11.03;;
7989;SDS011;4040;42.848;23.034;2022-11-21T15:27:32;24.07;;;9.23;;
7989;SDS011;4040;42.848;23.034;2022-11-21T15:37:24;32.77;;;11.40;;
7989;SDS011;4040;42.848;23.034;2022-11-21T15:43:13;22.37;;;10.00;;
7989;SDS011;4040;42.848;23.034;2022-11-21T15:49:20;23.33;;;9.23;;
7989;SDS011;4040;42.848;23.034;2022-11-21T15:55:12;12.93;;;6.27;;
7989;SDS011;4040;42.848;23.034;2022-11-21T16:01:09;14.17;;;8.43;;
7989;SDS011;4040;42.848;23.034;2022-11-21T16:07:00;11.43;;;5.77;;
7989;SDS011;4040;42.848;23.034;2022-11-21T16:12:50;6.00;;;3.97;;
7989;SDS011;4040;42.848;23.034;2022-11-21T16:18:38;19.13;;;11.70;;
7989;SDS011;4040;42.848;23.034;2022-11-21T16:24:27;22.20;;;14.33;;
7989;SDS011;4040;42.848;23.034;2022-11-21T16:30:17;19.83;;;12.63;;
7989;SDS011;4040;42.848;23.034;2022-11-21T16:40:28;16.27;;;9.67;;
7989;SDS011;4040;42.848;23.034;2022-11-21T16:46:18;35.53;;;14.53;;
7989;SDS011;4040;42.848;23.034;2022-11-21T16:52:08;50.27;;;17.17;;
7989;SDS011;4040;42.848;23.034;2022-11-21T16:57:58;38.80;;;17.07;;
7989;SDS011;4040;42.848;23.034;2022-11-21T17:03:48;12.37;;;6.53;;
7989;SDS011;4040;42.848;23.034;2022-11-21T17:09:37;11.47;;;6.50;;
7989;SDS011;4040;42.848;23.034;2022-11-21T17:15:26;25.67;;;12.20;;
7989;SDS011;4040;42.848;23.034;2022-11-21T17:21:16;16.17;;;7.70;;
7989;SDS011;4040;42.848;23.034;2022-11-21T17:27:05;15.30;;;8.87;;
7989;SDS011;4040;42.848;23.034;2022-11-21T17:32:53;17.60;;;10.93;;
7989;SDS011;4040;42.848;23.034;2022-11-21T17:43:05;16.27;;;9.23;;
7989;SDS011;4040;42.848;23.034;2022-11-21T17:48:54;36.93;;;18.77;;
7989;SDS011;4040;42.848;23.034;2022-11-21T17:54:44;30.00;;;17.17;;
7989;SDS011;4040;42.848;23.034;2022-11-21T18:00:34;23.67;;;15.33;;
7989;SDS011;4040;42.848;23.034;2022-11-21T18:06:23;31.57;;;19.07;;
7989;SDS011;4040;42.848;23.034;2022-11-21T18:12:12;19.67;;;11.17;;
7989;SDS011;4040;42.848;23.034;2022-11-21T18:18:03;19.73;;;14.80;;
7989;SDS011;4040;42.848;23.034;2022-11-21T18:23:52;13.53;;;8.27;;
7989;SDS011;4040;42.848;23.034;2022-11-21T18:29:41;14.07;;;7.87;;
7989;SDS011;4040;42.848;23.034;2022-11-21T18:35:31;13.00;;;8.80;;
7989;SDS011;4040;42.848;23.034;2022-11-21T18:45:41;19.60;;;11.30;;
7989;SDS011;4040;42.848;23.034;2022-11-21T18:51:31;12.67;;;6.50;;
7989;SDS011;4040;42.848;23.034;2022-11-21T18:57:20;15.20;;;8.27;;
7989;SDS011;4040;42.848;23.034;2022-11-21T19:03:09;15.50;;;9.30;;
7989;SDS011;4040;42.848;23.034;2022-11-21T19:09:00;12.87;;;8.13;;
7989;SDS011;4040;42.848;23.034;2022-11-21T19:14:48;14.80;;;7.80;;
7989;SDS011;4040;42.848;23.034;2022-11-21T19:20:38;20.57;;;14.37;;
7989;SDS011;4040;42.848;23.034;2022-11-21T19:26:29;11.90;;;9.33;;
7989;SDS011;4040;42.848;23.034;2022-11-21T19:32:18;7.80;;;6.30;;
7989;SDS011;4040;42.848;23.034;2022-11-21T19:38:07;12.20;;;7.70;;
7989;SDS011;4040;42.848;23.034;2022-11-21T19:48:19;8.77;;;6.20;;
7989;SDS011;4040;42.848;23.034;2022-11-21T19:54:08;43.30;;;17.37;;
7989;SDS011;4040;42.848;23.034;2022-11-21T19:59:59;13.43;;;9.77;;
7989;SDS011;4040;42.848;23.034;2022-11-21T20:05:49;20.80;;;11.23;;
7989;SDS011;4040;42.848;23.034;2022-11-21T20:11:38;9.00;;;6.53;;
7989;SDS011;4040;42.848;23.034;2022-11-21T20:17:28;12.23;;;8.13;;
7989;SDS011;4040;42.848;23.034;2022-11-21T20:23:18;6.90;;;6.07;;
7989;SDS011;4040;42.848;23.034;2022-11-21T20:29:06;10.80;;;7.33;;
7989;SDS011;4040;42.848;23.034;2022-11-21T20:34:57;9.83;;;6.80;;
7989;SDS011;4040;42.848;23.034;2022-11-21T20:40:52;9.70;;;5.67;;
7989;SDS011;4040;42.848;23.034;2022-11-21T20:51:02;6.80;;;4.30;;
7989;SDS011;4040;42.848;23.034;2022-11-21T20:56:52;12.47;;;7.00;;
7989;SDS011;4040;42.848;23.034;2022-11-21T21:02:41;12.27;;;6.63;;
7989;SDS011;4040;42.848;23.034;2022-11-21T21:08:30;10.37;;;6.33;;
7989;SDS011;4040;42.848;23.034;2022-11-21T21:14:21;4.90;;;3.30;;
7989;SDS011;4040;42.848;23.034;2022-11-21T21:20:10;11.93;;;6.90;;
7989;SDS011;4040;42.848;23.034;2022-11-21T21:26:05;12.33;;;7.57;;
7989;SDS011;4040;42.848;23.034;2022-11-21T21:31:56;13.23;;;6.50;;
7989;SDS011;4040;42.848;23.034;2022-11-21T21:37:45;6.97;;;5.27;;
7989;SDS011;4040;42.848;23.034;2022-11-21T21:43:34;7.33;;;5.53;;
7989;SDS011;4040;42.848;23.034;2022-11-21T21:53:46;7.37;;;5.97;;
7989;SDS011;4040;42.848;23.034;2022-11-21T21:59:36;13.27;;;8.27;;
7989;SDS011;4040;42.848;23.034;2022-11-21T22:05:24;10.43;;;9.20;;
7989;SDS011;4040;42.848;23.034;2022-11-21T22:11:15;6.37;;;5.10;;
7989;SDS011;4040;42.848;23.034;2022-11-21T22:17:05;8.30;;;6.00;;
7989;SDS011;4040;42.848;23.034;2022-11-21T22:22:53;9.07;;;6.70;;
7989;SDS011;4040;42.848;23.034;2022-11-21T22:28:45;9.00;;;7.00;;
7989;SDS011;4040;42.848;23.034;2022-11-21T22:34:33;9.37;;;6.83;;
7989;SDS011;4040;42.848;23.034;2022-11-21T22:40:22;11.53;;;7.93;;
7989;SDS011;4040;42.848;23.034;2022-11-21T22:46:12;11.53;;;8.10;;
7989;SDS011;4040;42.848;23.034;2022-11-21T22:56:22;9.50;;;6.70;;
7989;SDS011;4040;42.848;23.034;2022-11-21T23:18:54;5.30;;;4.67;;
7989;SDS011;4040;42.848;23.034;2022-11-21T23:24:43;6.23;;;4.70;;
7989;SDS011;4040;42.848;23.034;2022-11-21T23:30:32;5.27;;;4.47;;
7989;SDS011;4040;42.848;23.034;2022-11-21T23:36:22;6.37;;;4.97;;
7989;SDS011;4040;42.848;23.034;2022-11-21T23:42:10;6.87;;;5.33;;
7989;SDS011;4040;42.848;23.034;2022-11-21T23:47:59;5.80;;;5.03;;
7989;SDS011;4040;42.848;23.034;2022-11-21T23:53:49;6.77;;;4.87;;
7989;SDS011;4040;42.848;23.034;2022-11-21T23:59:38;7.10;;;5.63;;
